sensor_id;sensor_type;location;lat;lon;timestamp;P1;durP1;ratioP1;P2;durP2;ratioP2
76733;SDS011;65660;53.288;14.666;2023-10-09T00:01:29;7.13;;;3.90;;
76733;SDS011;65660;53.288;14.666;2023-10-09T00:06:31;5.10;;;3.73;;
76733;SDS011;65660;53.288;14.666;2023-10-09T00:11:31;5.57;;;3.93;;
76733;SDS011;65660;53.288;14.666;2023-10-09T00:16:32;4.73;;;3.87;;
76733;SDS011;65660;53.288;14.666;2023-10-09T00:21:33;7.43;;;3.90;;
76733;SDS011;65660;53.288;14.666;2023-10-09T00:26:33;6.17;;;4.40;;
76733;SDS011;65660;53.288;14.666;2023-10-09T00:31:34;5.27;;;4.77;;
76733;SDS011;65660;53.288;14.666;2023-10-09T00:36:34;6.03;;;4.03;;
76733;SDS011;65660;53.288;14.666;2023-10-09T00:41:35;6.50;;;4.60;;
76733;SDS011;65660;53.288;14.666;2023-10-09T00:46:35;7.67;;;3.90;;
76733;SDS011;65660;53.288;14.666;2023-10-09T00:51:38;6.97;;;4.60;;
76733;SDS011;65660;53.288;14.666;2023-10-09T00:56:40;7.50;;;4.20;;
76733;SDS011;65660;53.288;14.666;2023-10-09T01:01:42;6.57;;;3.90;;
76733;SDS011;65660;53.288;14.666;2023-10-09T01:06:44;5.87;;;3.80;;
76733;SDS011;65660;53.288;14.666;2023-10-09T01:11:46;8.23;;;4.07;;
76733;SDS011;65660;53.288;14.666;2023-10-09T01:16:47;7.03;;;3.90;;
76733;SDS011;65660;53.288;14.666;2023-10-09T01:21:48;5.77;;;3.70;;
76733;SDS011;65660;53.288;14.666;2023-10-09T01:26:48;6.10;;;3.40;;
76733;SDS011;65660;53.288;14.666;2023-10-09T01:31:50;6.00;;;3.70;;
76733;SDS011;65660;53.288;14.666;2023-10-09T01:36:51;6.80;;;3.80;;
76733;SDS011;65660;53.288;14.666;2023-10-09T01:41:52;5.40;;;3.43;;
76733;SDS011;65660;53.288;14.666;2023-10-09T01:46:54;4.90;;;3.50;;
76733;SDS011;65660;53.288;14.666;2023-10-09T01:51:54;6.40;;;4.37;;
76733;SDS011;65660;53.288;14.666;2023-10-09T01:56:55;6.50;;;4.17;;
76733;SDS011;65660;53.288;14.666;2023-10-09T02:01:55;4.80;;;3.53;;
76733;SDS011;65660;53.288;14.666;2023-10-09T02:06:56;3.87;;;3.33;;
76733;SDS011;65660;53.288;14.666;2023-10-09T02:11:56;5.30;;;2.73;;
76733;SDS011;65660;53.288;14.666;2023-10-09T02:16:56;5.60;;;3.70;;
76733;SDS011;65660;53.288;14.666;2023-10-09T02:21:57;5.53;;;3.10;;
76733;SDS011;65660;53.288;14.666;2023-10-09T02:26:57;4.90;;;3.80;;
76733;SDS011;65660;53.288;14.666;2023-10-09T02:31:58;4.57;;;3.30;;
76733;SDS011;65660;53.288;14.666;2023-10-09T02:36:58;5.10;;;3.50;;
76733;SDS011;65660;53.288;14.666;2023-10-09T02:41:59;4.00;;;3.20;;
76733;SDS011;65660;53.288;14.666;2023-10-09T02:46:59;4.67;;;3.03;;
76733;SDS011;65660;53.288;14.666;2023-10-09T02:52:00;4.70;;;2.77;;
76733;SDS011;65660;53.288;14.666;2023-10-09T02:57:00;4.77;;;3.10;;
76733;SDS011;65660;53.288;14.666;2023-10-09T03:02:01;4.47;;;3.00;;
76733;SDS011;65660;53.288;14.666;2023-10-09T03:07:01;4.43;;;3.40;;
76733;SDS011;65660;53.288;14.666;2023-10-09T03:12:03;3.80;;;3.00;;
76733;SDS011;65660;53.288;14.666;2023-10-09T03:17:04;4.47;;;2.90;;
76733;SDS011;65660;53.288;14.666;2023-10-09T03:22:05;4.67;;;2.83;;
76733;SDS011;65660;53.288;14.666;2023-10-09T03:27:07;4.63;;;2.70;;
76733;SDS011;65660;53.288;14.666;2023-10-09T03:32:07;4.63;;;2.70;;
76733;SDS011;65660;53.288;14.666;2023-10-09T03:37:09;3.60;;;2.70;;
76733;SDS011;65660;53.288;14.666;2023-10-09T03:42:09;5.07;;;2.73;;
76733;SDS011;65660;53.288;14.666;2023-10-09T03:47:10;5.53;;;3.20;;
76733;SDS011;65660;53.288;14.666;2023-10-09T03:52:10;4.37;;;3.10;;
76733;SDS011;65660;53.288;14.666;2023-10-09T03:57:11;7.00;;;3.53;;
76733;SDS011;65660;53.288;14.666;2023-10-09T04:02:12;4.67;;;3.30;;
76733;SDS011;65660;53.288;14.666;2023-10-09T04:07:13;3.80;;;2.70;;
76733;SDS011;65660;53.288;14.666;2023-10-09T04:12:14;4.53;;;2.90;;
76733;SDS011;65660;53.288;14.666;2023-10-09T04:17:14;4.67;;;2.70;;
76733;SDS011;65660;53.288;14.666;2023-10-09T04:22:15;3.47;;;2.90;;
76733;SDS011;65660;53.288;14.666;2023-10-09T04:27:15;4.03;;;2.80;;
76733;SDS011;65660;53.288;14.666;2023-10-09T04:32:16;3.47;;;2.70;;
76733;SDS011;65660;53.288;14.666;2023-10-09T04:37:16;4.20;;;3.13;;
76733;SDS011;65660;53.288;14.666;2023-10-09T04:42:17;3.87;;;2.97;;
76733;SDS011;65660;53.288;14.666;2023-10-09T04:47:17;3.90;;;3.53;;
76733;SDS011;65660;53.288;14.666;2023-10-09T04:52:18;5.87;;;3.37;;
76733;SDS011;65660;53.288;14.666;2023-10-09T04:57:19;3.40;;;2.80;;
76733;SDS011;65660;53.288;14.666;2023-10-09T05:02:19;3.43;;;2.87;;
76733;SDS011;65660;53.288;14.666;2023-10-09T05:07:20;2.90;;;2.50;;
76733;SDS011;65660;53.288;14.666;2023-10-09T05:12:21;4.73;;;2.67;;
76733;SDS011;65660;53.288;14.666;2023-10-09T05:17:22;3.17;;;2.40;;
76733;SDS011;65660;53.288;14.666;2023-10-09T05:22:22;4.53;;;2.97;;
76733;SDS011;65660;53.288;14.666;2023-10-09T05:27:23;5.17;;;2.90;;
76733;SDS011;65660;53.288;14.666;2023-10-09T05:32:23;2.87;;;2.60;;
76733;SDS011;65660;53.288;14.666;2023-10-09T05:37:24;5.33;;;3.13;;
76733;SDS011;65660;53.288;14.666;2023-10-09T05:42:26;3.23;;;2.67;;
76733;SDS011;65660;53.288;14.666;2023-10-09T05:47:32;3.60;;;2.70;;
76733;SDS011;65660;53.288;14.666;2023-10-09T05:52:32;4.13;;;2.90;;
76733;SDS011;65660;53.288;14.666;2023-10-09T05:57:32;3.80;;;2.80;;
76733;SDS011;65660;53.288;14.666;2023-10-09T06:02:33;3.00;;;2.70;;
76733;SDS011;65660;53.288;14.666;2023-10-09T06:07:33;4.17;;;2.70;;
76733;SDS011;65660;53.288;14.666;2023-10-09T06:12:34;5.80;;;3.07;;
76733;SDS011;65660;53.288;14.666;2023-10-09T06:17:34;5.23;;;3.10;;
76733;SDS011;65660;53.288;14.666;2023-10-09T06:22:35;4.40;;;2.80;;
76733;SDS011;65660;53.288;14.666;2023-10-09T06:27:35;4.50;;;3.40;;
76733;SDS011;65660;53.288;14.666;2023-10-09T06:32:36;5.43;;;2.77;;
76733;SDS011;65660;53.288;14.666;2023-10-09T06:37:36;4.83;;;3.07;;
76733;SDS011;65660;53.288;14.666;2023-10-09T06:42:36;4.50;;;3.20;;
76733;SDS011;65660;53.288;14.666;2023-10-09T06:47:37;4.27;;;3.40;;
76733;SDS011;65660;53.288;14.666;2023-10-09T06:52:37;5.17;;;3.87;;
76733;SDS011;65660;53.288;14.666;2023-10-09T06:57:38;4.20;;;3.20;;
76733;SDS011;65660;53.288;14.666;2023-10-09T07:02:39;6.33;;;3.10;;
76733;SDS011;65660;53.288;14.666;2023-10-09T07:07:40;4.60;;;3.00;;
76733;SDS011;65660;53.288;14.666;2023-10-09T07:12:41;3.93;;;3.20;;
76733;SDS011;65660;53.288;14.666;2023-10-09T07:17:42;4.13;;;2.50;;
76733;SDS011;65660;53.288;14.666;2023-10-09T07:22:42;3.27;;;2.30;;
76733;SDS011;65660;53.288;14.666;2023-10-09T07:27:43;4.27;;;3.30;;
76733;SDS011;65660;53.288;14.666;2023-10-09T07:32:43;3.30;;;2.40;;
76733;SDS011;65660;53.288;14.666;2023-10-09T07:37:44;4.57;;;3.23;;
76733;SDS011;65660;53.288;14.666;2023-10-09T07:42:44;4.23;;;2.70;;
76733;SDS011;65660;53.288;14.666;2023-10-09T07:47:50;3.50;;;3.20;;
76733;SDS011;65660;53.288;14.666;2023-10-09T07:52:50;3.93;;;2.90;;
76733;SDS011;65660;53.288;14.666;2023-10-09T07:57:51;3.87;;;2.73;;
76733;SDS011;65660;53.288;14.666;2023-10-09T08:02:52;5.83;;;3.57;;
76733;SDS011;65660;53.288;14.666;2023-10-09T08:07:53;4.43;;;2.67;;
76733;SDS011;65660;53.288;14.666;2023-10-09T08:12:54;4.10;;;2.90;;
76733;SDS011;65660;53.288;14.666;2023-10-09T08:17:55;4.43;;;2.40;;
76733;SDS011;65660;53.288;14.666;2023-10-09T08:22:57;4.00;;;2.30;;
76733;SDS011;65660;53.288;14.666;2023-10-09T08:27:58;3.00;;;2.40;;
76733;SDS011;65660;53.288;14.666;2023-10-09T08:33:00;4.30;;;2.37;;
76733;SDS011;65660;53.288;14.666;2023-10-09T08:38:01;2.63;;;2.13;;
76733;SDS011;65660;53.288;14.666;2023-10-09T08:43:08;3.50;;;2.20;;
76733;SDS011;65660;53.288;14.666;2023-10-09T08:48:08;3.63;;;2.13;;
76733;SDS011;65660;53.288;14.666;2023-10-09T08:53:13;4.33;;;2.50;;
76733;SDS011;65660;53.288;14.666;2023-10-09T08:58:14;3.20;;;2.30;;
76733;SDS011;65660;53.288;14.666;2023-10-09T09:03:15;3.93;;;2.77;;
76733;SDS011;65660;53.288;14.666;2023-10-09T09:08:26;2.70;;;2.20;;
76733;SDS011;65660;53.288;14.666;2023-10-09T09:13:28;3.37;;;2.50;;
76733;SDS011;65660;53.288;14.666;2023-10-09T09:18:29;3.07;;;2.40;;
76733;SDS011;65660;53.288;14.666;2023-10-09T09:23:30;2.73;;;2.13;;
76733;SDS011;65660;53.288;14.666;2023-10-09T09:28:30;4.40;;;2.70;;
76733;SDS011;65660;53.288;14.666;2023-10-09T09:33:31;2.87;;;2.23;;
76733;SDS011;65660;53.288;14.666;2023-10-09T09:38:32;2.80;;;2.10;;
76733;SDS011;65660;53.288;14.666;2023-10-09T09:43:35;4.27;;;2.47;;
76733;SDS011;65660;53.288;14.666;2023-10-09T09:48:39;4.40;;;2.70;;
76733;SDS011;65660;53.288;14.666;2023-10-09T09:53:40;4.07;;;2.70;;
76733;SDS011;65660;53.288;14.666;2023-10-09T09:58:40;5.90;;;4.10;;
76733;SDS011;65660;53.288;14.666;2023-10-09T10:03:47;16.03;;;8.43;;
76733;SDS011;65660;53.288;14.666;2023-10-09T10:08:52;10.57;;;6.70;;
76733;SDS011;65660;53.288;14.666;2023-10-09T10:23:57;2.70;;;2.40;;
76733;SDS011;65660;53.288;14.666;2023-10-09T10:29:20;4.33;;;3.17;;
76733;SDS011;65660;53.288;14.666;2023-10-09T10:34:22;3.20;;;2.90;;
76733;SDS011;65660;53.288;14.666;2023-10-09T10:39:24;3.77;;;2.90;;
76733;SDS011;65660;53.288;14.666;2023-10-09T10:49:25;8.00;;;3.13;;
76733;SDS011;65660;53.288;14.666;2023-10-09T10:54:27;3.63;;;2.93;;
76733;SDS011;65660;53.288;14.666;2023-10-09T10:59:30;3.53;;;2.80;;
76733;SDS011;65660;53.288;14.666;2023-10-09T11:04:31;4.43;;;2.50;;
76733;SDS011;65660;53.288;14.666;2023-10-09T11:09:42;12.53;;;5.93;;
76733;SDS011;65660;53.288;14.666;2023-10-09T11:14:46;4.67;;;3.10;;
76733;SDS011;65660;53.288;14.666;2023-10-09T11:19:46;3.40;;;2.30;;
76733;SDS011;65660;53.288;14.666;2023-10-09T11:24:50;4.07;;;3.00;;
76733;SDS011;65660;53.288;14.666;2023-10-09T11:29:51;6.47;;;4.23;;
76733;SDS011;65660;53.288;14.666;2023-10-09T11:35:09;3.60;;;3.30;;
76733;SDS011;65660;53.288;14.666;2023-10-09T11:40:29;2.67;;;2.30;;
76733;SDS011;65660;53.288;14.666;2023-10-09T11:45:33;2.80;;;2.57;;
76733;SDS011;65660;53.288;14.666;2023-10-09T11:50:40;3.37;;;2.77;;
76733;SDS011;65660;53.288;14.666;2023-10-09T11:55:41;5.03;;;3.30;;
76733;SDS011;65660;53.288;14.666;2023-10-09T12:00:41;3.07;;;2.40;;
76733;SDS011;65660;53.288;14.666;2023-10-09T12:05:42;4.37;;;2.70;;
76733;SDS011;65660;53.288;14.666;2023-10-09T12:10:42;4.57;;;3.23;;
76733;SDS011;65660;53.288;14.666;2023-10-09T12:15:43;4.27;;;3.30;;
76733;SDS011;65660;53.288;14.666;2023-10-09T12:20:43;4.10;;;3.70;;
76733;SDS011;65660;53.288;14.666;2023-10-09T12:25:44;5.33;;;3.30;;
76733;SDS011;65660;53.288;14.666;2023-10-09T12:30:48;4.10;;;3.70;;
76733;SDS011;65660;53.288;14.666;2023-10-09T12:35:49;4.87;;;3.40;;
76733;SDS011;65660;53.288;14.666;2023-10-09T12:40:50;4.10;;;3.70;;
76733;SDS011;65660;53.288;14.666;2023-10-09T12:45:50;4.77;;;4.30;;
76733;SDS011;65660;53.288;14.666;2023-10-09T12:50:51;4.30;;;4.00;;
76733;SDS011;65660;53.288;14.666;2023-10-09T12:55:51;4.80;;;4.40;;
76733;SDS011;65660;53.288;14.666;2023-10-09T13:00:52;4.23;;;3.83;;
76733;SDS011;65660;53.288;14.666;2023-10-09T13:05:52;4.82;;;4.18;;
76733;SDS011;65660;53.288;14.666;2023-10-09T13:10:53;3.97;;;3.40;;
76733;SDS011;65660;53.288;14.666;2023-10-09T13:15:54;4.47;;;3.80;;
76733;SDS011;65660;53.288;14.666;2023-10-09T13:20:54;3.72;;;3.38;;
76733;SDS011;65660;53.288;14.666;2023-10-09T13:25:55;4.57;;;4.17;;
76733;SDS011;65660;53.288;14.666;2023-10-09T13:30:55;4.53;;;3.97;;
76733;SDS011;65660;53.288;14.666;2023-10-09T13:35:56;5.47;;;3.10;;
76733;SDS011;65660;53.288;14.666;2023-10-09T13:40:57;4.63;;;3.53;;
76733;SDS011;65660;53.288;14.666;2023-10-09T13:45:58;3.85;;;3.10;;
76733;SDS011;65660;53.288;14.666;2023-10-09T13:50:59;3.73;;;3.40;;
76733;SDS011;65660;53.288;14.666;2023-10-09T13:55:59;4.40;;;4.00;;
76733;SDS011;65660;53.288;14.666;2023-10-09T14:00:59;4.37;;;3.10;;
76733;SDS011;65660;53.288;14.666;2023-10-09T14:06:00;6.23;;;3.40;;
76733;SDS011;65660;53.288;14.666;2023-10-09T14:11:00;4.65;;;4.25;;
76733;SDS011;65660;53.288;14.666;2023-10-09T14:16:01;5.18;;;3.38;;
76733;SDS011;65660;53.288;14.666;2023-10-09T14:21:02;4.40;;;2.80;;
76733;SDS011;65660;53.288;14.666;2023-10-09T14:26:03;4.57;;;3.27;;
76733;SDS011;65660;53.288;14.666;2023-10-09T14:31:03;4.10;;;3.40;;
76733;SDS011;65660;53.288;14.666;2023-10-09T14:36:04;4.43;;;3.00;;
76733;SDS011;65660;53.288;14.666;2023-10-09T14:41:05;3.93;;;3.20;;
76733;SDS011;65660;53.288;14.666;2023-10-09T14:46:06;3.70;;;3.20;;
76733;SDS011;65660;53.288;14.666;2023-10-09T14:51:13;4.53;;;3.00;;
76733;SDS011;65660;53.288;14.666;2023-10-09T14:56:13;6.23;;;3.80;;
76733;SDS011;65660;53.288;14.666;2023-10-09T15:01:13;5.53;;;3.80;;
76733;SDS011;65660;53.288;14.666;2023-10-09T15:06:14;4.77;;;3.30;;
76733;SDS011;65660;53.288;14.666;2023-10-09T15:11:14;4.40;;;3.40;;
76733;SDS011;65660;53.288;14.666;2023-10-09T15:16:15;4.97;;;3.93;;
76733;SDS011;65660;53.288;14.666;2023-10-09T15:21:15;3.47;;;3.10;;
76733;SDS011;65660;53.288;14.666;2023-10-09T15:26:16;3.70;;;3.17;;
76733;SDS011;65660;53.288;14.666;2023-10-09T15:31:19;3.97;;;3.50;;
76733;SDS011;65660;53.288;14.666;2023-10-09T15:36:19;5.43;;;3.67;;
76733;SDS011;65660;53.288;14.666;2023-10-09T15:41:20;4.70;;;3.60;;
76733;SDS011;65660;53.288;14.666;2023-10-09T15:46:20;4.57;;;4.03;;
76733;SDS011;65660;53.288;14.666;2023-10-09T15:51:21;5.77;;;3.90;;
76733;SDS011;65660;53.288;14.666;2023-10-09T15:56:21;4.47;;;3.90;;
76733;SDS011;65660;53.288;14.666;2023-10-09T16:01:22;6.53;;;4.20;;
76733;SDS011;65660;53.288;14.666;2023-10-09T16:06:22;5.77;;;4.00;;
76733;SDS011;65660;53.288;14.666;2023-10-09T16:11:23;6.33;;;4.23;;
76733;SDS011;65660;53.288;14.666;2023-10-09T16:16:24;4.97;;;3.83;;
76733;SDS011;65660;53.288;14.666;2023-10-09T16:21:26;5.60;;;4.40;;
76733;SDS011;65660;53.288;14.666;2023-10-09T16:26:26;5.47;;;4.40;;
76733;SDS011;65660;53.288;14.666;2023-10-09T16:31:27;7.77;;;4.93;;
76733;SDS011;65660;53.288;14.666;2023-10-09T16:36:27;7.00;;;5.87;;
76733;SDS011;65660;53.288;14.666;2023-10-09T16:41:28;6.80;;;5.23;;
76733;SDS011;65660;53.288;14.666;2023-10-09T16:46:29;9.57;;;6.87;;
76733;SDS011;65660;53.288;14.666;2023-10-09T16:51:29;7.80;;;5.97;;
76733;SDS011;65660;53.288;14.666;2023-10-09T16:56:30;8.63;;;6.10;;
76733;SDS011;65660;53.288;14.666;2023-10-09T17:01:30;8.23;;;7.43;;
76733;SDS011;65660;53.288;14.666;2023-10-09T17:06:31;9.03;;;7.00;;
76733;SDS011;65660;53.288;14.666;2023-10-09T17:11:31;8.50;;;7.00;;
76733;SDS011;65660;53.288;14.666;2023-10-09T17:16:32;9.00;;;6.70;;
76733;SDS011;65660;53.288;14.666;2023-10-09T17:21:32;9.73;;;7.27;;
76733;SDS011;65660;53.288;14.666;2023-10-09T17:26:33;7.77;;;6.47;;
76733;SDS011;65660;53.288;14.666;2023-10-09T17:31:33;10.20;;;7.70;;
76733;SDS011;65660;53.288;14.666;2023-10-09T17:36:34;9.67;;;7.07;;
76733;SDS011;65660;53.288;14.666;2023-10-09T17:41:34;8.87;;;7.47;;
76733;SDS011;65660;53.288;14.666;2023-10-09T17:46:35;9.10;;;7.10;;
76733;SDS011;65660;53.288;14.666;2023-10-09T17:51:35;11.23;;;7.07;;
76733;SDS011;65660;53.288;14.666;2023-10-09T17:56:36;8.80;;;6.20;;
76733;SDS011;65660;53.288;14.666;2023-10-09T18:01:37;8.70;;;5.83;;
76733;SDS011;65660;53.288;14.666;2023-10-09T18:06:38;7.73;;;5.97;;
76733;SDS011;65660;53.288;14.666;2023-10-09T18:11:39;7.87;;;6.00;;
76733;SDS011;65660;53.288;14.666;2023-10-09T18:16:40;12.17;;;6.30;;
76733;SDS011;65660;53.288;14.666;2023-10-09T18:21:43;9.03;;;6.10;;
76733;SDS011;65660;53.288;14.666;2023-10-09T18:26:43;9.63;;;6.83;;
76733;SDS011;65660;53.288;14.666;2023-10-09T18:31:44;13.33;;;7.73;;
76733;SDS011;65660;53.288;14.666;2023-10-09T18:36:44;11.57;;;7.60;;
76733;SDS011;65660;53.288;14.666;2023-10-09T18:41:45;10.87;;;7.03;;
76733;SDS011;65660;53.288;14.666;2023-10-09T18:46:45;10.73;;;7.00;;
76733;SDS011;65660;53.288;14.666;2023-10-09T18:51:46;11.63;;;7.07;;
76733;SDS011;65660;53.288;14.666;2023-10-09T18:56:46;12.47;;;8.87;;
76733;SDS011;65660;53.288;14.666;2023-10-09T19:01:47;11.50;;;8.10;;
76733;SDS011;65660;53.288;14.666;2023-10-09T19:06:48;14.70;;;10.33;;
76733;SDS011;65660;53.288;14.666;2023-10-09T19:11:49;15.40;;;9.60;;
76733;SDS011;65660;53.288;14.666;2023-10-09T19:16:50;14.80;;;10.00;;
76733;SDS011;65660;53.288;14.666;2023-10-09T19:21:50;17.03;;;12.13;;
76733;SDS011;65660;53.288;14.666;2023-10-09T19:26:51;15.33;;;10.77;;
76733;SDS011;65660;53.288;14.666;2023-10-09T19:31:51;17.53;;;11.53;;
76733;SDS011;65660;53.288;14.666;2023-10-09T19:36:51;14.00;;;8.77;;
76733;SDS011;65660;53.288;14.666;2023-10-09T19:41:52;11.33;;;8.73;;
76733;SDS011;65660;53.288;14.666;2023-10-09T19:46:53;11.70;;;7.30;;
76733;SDS011;65660;53.288;14.666;2023-10-09T19:51:53;12.20;;;7.63;;
76733;SDS011;65660;53.288;14.666;2023-10-09T19:56:54;10.13;;;6.77;;
76733;SDS011;65660;53.288;14.666;2023-10-09T20:01:54;9.13;;;7.00;;
76733;SDS011;65660;53.288;14.666;2023-10-09T20:06:56;11.37;;;6.80;;
76733;SDS011;65660;53.288;14.666;2023-10-09T20:11:57;10.23;;;6.87;;
76733;SDS011;65660;53.288;14.666;2023-10-09T20:16:58;9.90;;;6.40;;
76733;SDS011;65660;53.288;14.666;2023-10-09T20:21:58;8.33;;;6.27;;
76733;SDS011;65660;53.288;14.666;2023-10-09T20:26:59;7.97;;;6.03;;
76733;SDS011;65660;53.288;14.666;2023-10-09T20:31:59;8.37;;;6.10;;
76733;SDS011;65660;53.288;14.666;2023-10-09T20:37:00;9.03;;;6.17;;
76733;SDS011;65660;53.288;14.666;2023-10-09T20:42:00;10.63;;;6.57;;
76733;SDS011;65660;53.288;14.666;2023-10-09T20:47:01;8.70;;;6.40;;
76733;SDS011;65660;53.288;14.666;2023-10-09T20:52:01;8.53;;;6.40;;
76733;SDS011;65660;53.288;14.666;2023-10-09T20:57:02;8.97;;;6.47;;
76733;SDS011;65660;53.288;14.666;2023-10-09T21:02:02;8.90;;;6.57;;
76733;SDS011;65660;53.288;14.666;2023-10-09T21:07:03;10.83;;;7.47;;
76733;SDS011;65660;53.288;14.666;2023-10-09T21:12:04;9.30;;;6.53;;
76733;SDS011;65660;53.288;14.666;2023-10-09T21:17:04;10.77;;;6.50;;
76733;SDS011;65660;53.288;14.666;2023-10-09T21:22:05;11.37;;;6.83;;
76733;SDS011;65660;53.288;14.666;2023-10-09T21:27:05;9.07;;;6.23;;
76733;SDS011;65660;53.288;14.666;2023-10-09T21:32:06;17.57;;;8.77;;
76733;SDS011;65660;53.288;14.666;2023-10-09T21:37:06;14.40;;;7.93;;
76733;SDS011;65660;53.288;14.666;2023-10-09T21:42:07;16.43;;;8.70;;
76733;SDS011;65660;53.288;14.666;2023-10-09T21:47:07;13.77;;;8.03;;
76733;SDS011;65660;53.288;14.666;2023-10-09T21:52:08;15.13;;;8.20;;
76733;SDS011;65660;53.288;14.666;2023-10-09T21:57:08;14.90;;;8.20;;
76733;SDS011;65660;53.288;14.666;2023-10-09T22:02:08;12.67;;;8.03;;
76733;SDS011;65660;53.288;14.666;2023-10-09T22:07:09;14.00;;;8.20;;
76733;SDS011;65660;53.288;14.666;2023-10-09T22:12:09;13.20;;;7.90;;
76733;SDS011;65660;53.288;14.666;2023-10-09T22:17:10;12.43;;;8.23;;
76733;SDS011;65660;53.288;14.666;2023-10-09T22:22:10;14.17;;;9.17;;
76733;SDS011;65660;53.288;14.666;2023-10-09T22:27:11;13.60;;;8.83;;
76733;SDS011;65660;53.288;14.666;2023-10-09T22:32:12;10.10;;;7.33;;
76733;SDS011;65660;53.288;14.666;2023-10-09T22:37:13;13.70;;;8.93;;
76733;SDS011;65660;53.288;14.666;2023-10-09T22:42:13;12.00;;;7.93;;
76733;SDS011;65660;53.288;14.666;2023-10-09T22:47:14;13.20;;;8.47;;
76733;SDS011;65660;53.288;14.666;2023-10-09T22:52:14;13.37;;;8.77;;
76733;SDS011;65660;53.288;14.666;2023-10-09T22:57:15;12.67;;;8.50;;
76733;SDS011;65660;53.288;14.666;2023-10-09T23:02:15;15.17;;;8.80;;
76733;SDS011;65660;53.288;14.666;2023-10-09T23:07:16;11.87;;;8.27;;
76733;SDS011;65660;53.288;14.666;2023-10-09T23:12:17;11.13;;;8.10;;
76733;SDS011;65660;53.288;14.666;2023-10-09T23:17:19;11.53;;;8.17;;
76733;SDS011;65660;53.288;14.666;2023-10-09T23:22:19;23.33;;;15.10;;
76733;SDS011;65660;53.288;14.666;2023-10-09T23:27:21;16.17;;;9.97;;
76733;SDS011;65660;53.288;14.666;2023-10-09T23:32:23;11.97;;;7.90;;
76733;SDS011;65660;53.288;14.666;2023-10-09T23:37:24;12.63;;;9.70;;
76733;SDS011;65660;53.288;14.666;2023-10-09T23:42:24;11.60;;;8.10;;
76733;SDS011;65660;53.288;14.666;2023-10-09T23:47:25;9.77;;;7.43;;
76733;SDS011;65660;53.288;14.666;2023-10-09T23:52:25;12.80;;;7.70;;
76733;SDS011;65660;53.288;14.666;2023-10-09T23:57:29;11.00;;;7.50;;
